YRTXU LRCV-LRBS
Flight info
| Callsign | YRTXU |
|---|---|
| Flight time | N/A |
| Altitude | 4000 |
| Route | PEMOK DCT BABAK |
| Aircraft | C182/L-SDGRY/S |
Departure
| Time | 2026-04-26 13:52 |
|---|---|
| Airport | Craiova International Airport (LRCV) |
Arrival
| Time | N/A |
|---|---|
| Airport | Bucharest Băneasa Aurel Vlaicu International Airport (LRBS) |
| Time | Latitude | Longitude | Altitude | Speed | Heading |
|---|---|---|---|---|---|
| 2026-04-26 13:40 | 44.31334 | 23.87906 | 620 ft | 0 kts | 94° |
| 2026-04-26 13:47 | 44.31336 | 23.87909 | 631 ft | 0 kts | 26° |
| 2026-04-26 13:48 | 44.31361 | 23.87874 | 628 ft | 10 kts | 314° |
| 2026-04-26 13:48 | 44.31440 | 23.87843 | 630 ft | 16 kts | 359° |
| 2026-04-26 13:48 | 44.31579 | 23.87840 | 627 ft | 23 kts | 359° |
| 2026-04-26 13:48 | 44.31745 | 23.87837 | 628 ft | 24 kts | 0° |
| 2026-04-26 13:49 | 44.31807 | 23.87990 | 627 ft | 23 kts | 90° |
| 2026-04-26 13:49 | 44.31809 | 23.88254 | 626 ft | 30 kts | 89° |
| 2026-04-26 13:49 | 44.31816 | 23.88581 | 624 ft | 37 kts | 87° |
| 2026-04-26 13:49 | 44.31820 | 23.88962 | 626 ft | 41 kts | 89° |
| 2026-04-26 13:50 | 44.31825 | 23.89353 | 629 ft | 38 kts | 88° |
| 2026-04-26 13:50 | 44.31831 | 23.89709 | 628 ft | 35 kts | 85° |
| 2026-04-26 13:50 | 44.31852 | 23.90039 | 625 ft | 33 kts | 88° |
| 2026-04-26 13:50 | 44.31830 | 23.90302 | 625 ft | 19 kts | 112° |
| 2026-04-26 13:51 | 44.31838 | 23.90324 | 625 ft | 2 kts | 274° |
| 2026-04-26 13:51 | 44.31838 | 23.90322 | 625 ft | 0 kts | 270° |
| 2026-04-26 13:51 | 44.31837 | 23.90285 | 630 ft | 12 kts | 271° |
| 2026-04-26 13:51 | 44.31833 | 23.89994 | 634 ft | 54 kts | 272° |
| 2026-04-26 13:52 | 44.31797 | 23.89365 | 750 ft | 76 kts | 272° |
| 2026-04-26 13:52 | 44.31687 | 23.88585 | 930 ft | 84 kts | 264° |
| 2026-04-26 13:52 | 44.31685 | 23.87852 | 1124 ft | 75 kts | 293° |
| 2026-04-26 13:52 | 44.31934 | 23.87161 | 1311 ft | 87 kts | 317° |
| 2026-04-26 13:53 | 44.32595 | 23.87105 | 1517 ft | 108 kts | 358° |
| 2026-04-26 13:53 | 44.33349 | 23.87296 | 1734 ft | 112 kts | 355° |
| 2026-04-26 13:53 | 44.34030 | 23.87976 | 1948 ft | 141 kts | 51° |
| 2026-04-26 13:53 | 44.34130 | 23.89363 | 2325 ft | 145 kts | 87° |
| 2026-04-26 13:54 | 44.34082 | 23.90767 | 2692 ft | 142 kts | 85° |
| 2026-04-26 13:54 | 44.33945 | 23.92129 | 3058 ft | 141 kts | 95° |
| 2026-04-26 13:54 | 44.33793 | 23.93457 | 3415 ft | 139 kts | 95° |
| 2026-04-26 13:55 | 44.33261 | 23.96400 | 3494 ft | 161 kts | 116° |
| 2026-04-26 13:55 | 44.32919 | 23.97307 | 3496 ft | 158 kts | 114° |
| 2026-04-26 13:55 | 44.33025 | 24.00625 | 3494 ft | 149 kts | 73° |
| 2026-04-26 13:56 | 44.33180 | 24.02078 | 3499 ft | 151 kts | 75° |
| 2026-04-26 13:56 | 44.33325 | 24.03527 | 3501 ft | 150 kts | 75° |
| 2026-04-26 13:56 | 44.33468 | 24.04972 | 3494 ft | 149 kts | 74° |
| 2026-04-26 13:56 | 44.33609 | 24.06387 | 3502 ft | 149 kts | 72° |
| 2026-04-26 13:57 | 44.33757 | 24.07827 | 3501 ft | 149 kts | 72° |
| 2026-04-26 13:57 | 44.33903 | 24.09259 | 3506 ft | 149 kts | 73° |
| 2026-04-26 13:57 | 44.34050 | 24.10693 | 3512 ft | 149 kts | 73° |
| 2026-04-26 13:57 | 44.34196 | 24.12123 | 3502 ft | 149 kts | 75° |
| 2026-04-26 13:58 | 44.34341 | 24.13561 | 3506 ft | 150 kts | 75° |
| 2026-04-26 13:58 | 44.34487 | 24.15014 | 3512 ft | 151 kts | 75° |
| 2026-04-26 13:58 | 44.34633 | 24.16455 | 3511 ft | 151 kts | 74° |
| 2026-04-26 13:58 | 44.34777 | 24.17911 | 3512 ft | 151 kts | 73° |
| 2026-04-26 13:59 | 44.34922 | 24.19362 | 3520 ft | 151 kts | 74° |
| 2026-04-26 13:59 | 44.35072 | 24.20815 | 3505 ft | 153 kts | 75° |
| 2026-04-26 13:59 | 44.35217 | 24.22280 | 3504 ft | 151 kts | 75° |